createdAt,value
2023-02-14T00:00:58.291Z,87
2023-02-14T00:02:10.067Z,87
2023-02-14T00:03:18.841Z,87
2023-02-14T00:04:26.080Z,87
2023-02-14T00:05:32.896Z,87
2023-02-14T00:06:39.805Z,87
2023-02-14T00:07:49.627Z,87
2023-02-14T00:08:57.401Z,87
2023-02-14T00:10:06.904Z,87
2023-02-14T00:11:14.040Z,87
2023-02-14T00:12:21.629Z,87
2023-02-14T00:13:28.629Z,87
2023-02-14T00:14:35.705Z,87
2023-02-14T00:15:47.813Z,87
2023-02-14T00:16:54.633Z,87
2023-02-14T00:18:03.294Z,88
2023-02-14T00:19:11.077Z,87
2023-02-14T00:20:17.900Z,87
2023-02-14T00:21:24.771Z,87
2023-02-14T00:22:31.641Z,87
2023-02-14T00:23:38.506Z,87
2023-02-14T00:24:47.387Z,87
2023-02-14T00:25:56.453Z,87
2023-02-14T00:27:05.129Z,87
2023-02-14T00:28:13.929Z,87
2023-02-14T00:29:22.894Z,87
2023-02-14T00:30:29.963Z,87
2023-02-14T00:31:37.194Z,87
2023-02-14T00:32:43.969Z,87
2023-02-14T00:33:50.801Z,87
2023-02-14T00:34:57.876Z,87
2023-02-14T00:36:05.793Z,87
2023-02-14T00:37:12.718Z,88
2023-02-14T00:38:19.603Z,87
2023-02-14T00:39:28.405Z,87
2023-02-14T00:40:35.318Z,87
2023-02-14T00:41:42.258Z,87
2023-02-14T00:42:50.360Z,87
2023-02-14T00:43:57.343Z,87
2023-02-14T00:45:04.237Z,87
2023-02-14T00:46:12.184Z,87
2023-02-14T00:47:19.960Z,87
2023-02-14T00:48:27.452Z,87
2023-02-14T00:49:34.324Z,87
2023-02-14T00:50:44.774Z,87
2023-02-14T00:51:53.081Z,87
2023-02-14T00:53:00.801Z,87
2023-02-14T00:54:07.708Z,87
2023-02-14T00:55:15.477Z,87
2023-02-14T00:56:22.421Z,88
2023-02-14T00:57:29.721Z,87
2023-02-14T00:58:38.128Z,87
2023-02-14T00:59:45.922Z,87
2023-02-14T01:00:53.691Z,87
2023-02-14T01:02:02.830Z,87
2023-02-14T01:03:09.832Z,87
2023-02-14T01:04:18.399Z,87
2023-02-14T01:05:26.218Z,87
2023-02-14T01:06:33.116Z,87
2023-02-14T01:07:43.453Z,87
2023-02-14T01:08:50.389Z,87
2023-02-14T01:09:57.238Z,86
2023-02-14T01:11:05.109Z,86
2023-02-14T01:12:11.870Z,86
2023-02-14T01:13:20.849Z,86
2023-02-14T01:14:27.810Z,86
2023-02-14T01:15:34.688Z,87
2023-02-14T01:16:41.561Z,87
2023-02-14T01:17:48.741Z,87
2023-02-14T01:18:55.528Z,87
2023-02-14T01:20:02.416Z,87
2023-02-14T01:21:11.084Z,87
2023-02-14T01:22:19.005Z,87
2023-02-14T01:23:26.926Z,87
2023-02-14T01:24:34.089Z,87
2023-02-14T01:25:41.144Z,87
2023-02-14T01:26:48.038Z,87
2023-02-14T01:27:55.676Z,87
2023-02-14T01:29:02.562Z,87
2023-02-14T01:30:09.497Z,87
2023-02-14T01:31:16.776Z,87
2023-02-14T01:32:25.392Z,87
2023-02-14T01:33:35.210Z,86
2023-02-14T01:34:41.997Z,86
2023-02-14T01:35:48.859Z,86
2023-02-14T01:36:56.621Z,86
2023-02-14T01:38:05.486Z,86
2023-02-14T01:39:12.677Z,86
2023-02-14T01:40:19.557Z,86
2023-02-14T01:41:27.215Z,86
2023-02-14T01:42:34.799Z,86
2023-02-14T01:43:41.709Z,86
2023-02-14T01:44:55.376Z,86
2023-02-14T01:46:05.236Z,86
2023-02-14T01:47:12.979Z,86
2023-02-14T01:48:19.918Z,86
2023-02-14T01:49:27.679Z,86
2023-02-14T01:50:36.535Z,86
2023-02-14T01:51:44.453Z,86
2023-02-14T01:52:51.185Z,86
2023-02-14T01:54:01.733Z,86
2023-02-14T01:55:08.564Z,86
2023-02-14T01:56:20.658Z,86
2023-02-14T01:57:28.445Z,86
2023-02-14T01:58:38.145Z,86
2023-02-14T01:59:44.942Z,86
2023-02-14T02:00:53.916Z,86
2023-02-14T02:02:00.821Z,86
2023-02-14T02:03:08.477Z,86
2023-02-14T02:04:16.706Z,86
2023-02-14T02:05:26.438Z,86
2023-02-14T02:06:33.515Z,86
2023-02-14T02:07:45.526Z,86
2023-02-14T02:08:55.246Z,86
2023-02-14T02:10:12.432Z,86
2023-02-14T02:11:19.223Z,86
2023-02-14T02:12:26.082Z,86
2023-02-14T02:13:32.946Z,86
2023-02-14T02:14:42.781Z,86
2023-02-14T02:15:49.648Z,86
2023-02-14T02:17:06.737Z,86
2023-02-14T02:18:18.765Z,86
2023-02-14T02:19:30.840Z,86
2023-02-14T02:20:48.005Z,86
2023-02-14T02:21:57.518Z,86
2023-02-14T02:23:09.571Z,86
2023-02-14T02:24:22.684Z,86
2023-02-14T02:25:34.870Z,86
2023-02-14T02:26:52.829Z,86
2023-02-14T02:28:06.006Z,86
2023-02-14T02:29:23.166Z,86
2023-02-14T02:30:41.556Z,86
2023-02-14T02:31:59.516Z,87
2023-02-14T02:33:16.538Z,86
2023-02-14T02:34:28.596Z,86
2023-02-14T02:35:45.865Z,86
2023-02-14T02:37:00.741Z,86
2023-02-14T02:38:15.905Z,86
2023-02-14T02:39:33.027Z,86
2023-02-14T02:40:44.950Z,86
2023-02-14T02:42:00.858Z,86
2023-02-14T02:43:18.022Z,86
2023-02-14T02:44:35.178Z,86
2023-02-14T02:45:48.199Z,86
2023-02-14T02:47:05.420Z,86
2023-02-14T02:48:15.314Z,86
2023-02-14T02:49:22.078Z,86
2023-02-14T02:50:44.438Z,86
2023-02-14T02:51:57.381Z,86
2023-02-14T02:53:11.986Z,86
2023-02-14T02:54:24.029Z,86
2023-02-14T02:55:37.618Z,86
2023-02-14T02:56:58.137Z,86
2023-02-14T02:58:05.814Z,86
2023-02-14T02:59:14.529Z,86
2023-02-14T03:00:32.242Z,86
2023-02-14T03:01:40.470Z,86
2023-02-14T03:02:52.413Z,86
2023-02-14T03:04:04.505Z,86
2023-02-14T03:05:16.484Z,86
2023-02-14T03:06:25.694Z,86
2023-02-14T03:07:32.605Z,86
2023-02-14T03:08:42.065Z,86
2023-02-14T03:09:49.073Z,86
2023-02-14T03:11:01.350Z,87
2023-02-14T03:12:07.974Z,86
2023-02-14T03:13:25.154Z,86
2023-02-14T03:14:37.202Z,86
2023-02-14T03:15:54.535Z,86
2023-02-14T03:17:07.304Z,86
2023-02-14T03:18:19.458Z,86
2023-02-14T03:19:34.369Z,86
2023-02-14T03:20:43.973Z,86
2023-02-14T03:21:56.050Z,86
2023-02-14T03:23:11.020Z,86
2023-02-14T03:24:28.257Z,86
2023-02-14T03:25:45.493Z,86
2023-02-14T03:27:00.179Z,86
2023-02-14T03:28:10.822Z,86
2023-02-14T03:29:22.790Z,86
2023-02-14T03:30:34.743Z,86
2023-02-14T03:31:41.911Z,86
2023-02-14T03:32:53.746Z,86
2023-02-14T03:34:04.053Z,86
2023-02-14T03:35:15.979Z,86
2023-02-14T03:36:28.143Z,86
2023-02-14T03:37:36.294Z,86
2023-02-14T03:38:48.877Z,86
2023-02-14T03:39:59.970Z,86
2023-02-14T03:41:12.044Z,86
2023-02-14T03:42:21.602Z,86
2023-02-14T03:43:32.159Z,86
2023-02-14T03:45:45.918Z,86
2023-02-14T03:46:54.615Z,86
2023-02-14T03:48:01.635Z,86
2023-02-14T03:49:08.769Z,86
2023-02-14T03:50:16.597Z,86
2023-02-14T03:51:23.435Z,86
2023-02-14T03:52:31.248Z,86
2023-02-14T03:53:40.791Z,86
2023-02-14T03:54:47.651Z,86
2023-02-14T03:55:54.482Z,86
2023-02-14T03:57:01.454Z,86
2023-02-14T03:58:10.201Z,86
2023-02-14T03:59:24.943Z,86
2023-02-14T04:00:32.027Z,86
2023-02-14T04:01:39.030Z,86
2023-02-14T04:02:48.793Z,86
2023-02-14T04:03:58.486Z,86
2023-02-14T04:05:05.254Z,86
2023-02-14T04:06:12.174Z,86
2023-02-14T04:07:21.680Z,86
2023-02-14T04:08:29.376Z,86
2023-02-14T04:09:37.172Z,86
2023-02-14T04:10:45.193Z,86
2023-02-14T04:11:52.113Z,86
2023-02-14T04:13:01.108Z,86
2023-02-14T04:14:07.993Z,86
2023-02-14T04:15:16.689Z,86
2023-02-14T04:16:23.857Z,86
2023-02-14T04:17:30.702Z,85
2023-02-14T04:18:43.665Z,85
2023-02-14T04:19:55.571Z,85
2023-02-14T04:21:02.562Z,85
2023-02-14T04:22:09.369Z,85
2023-02-14T04:23:16.269Z,85
2023-02-14T04:24:23.761Z,85
2023-02-14T04:25:30.644Z,85
2023-02-14T04:26:37.516Z,85
2023-02-14T04:27:44.397Z,85
2023-02-14T04:28:52.239Z,85
2023-02-14T04:30:01.738Z,85
2023-02-14T04:31:08.977Z,85
2023-02-14T04:32:15.913Z,85
2023-02-14T04:33:22.680Z,85
2023-02-14T04:34:29.581Z,85
2023-02-14T04:35:36.496Z,85
2023-02-14T04:36:46.745Z,85
2023-02-14T04:37:53.650Z,85
2023-02-14T04:39:01.962Z,85
2023-02-14T04:40:09.184Z,85
2023-02-14T04:41:16.183Z,85
2023-02-14T04:42:26.563Z,85
2023-02-14T04:43:33.552Z,85
2023-02-14T04:44:41.835Z,85
2023-02-14T04:45:49.055Z,85
2023-02-14T04:46:55.931Z,85
2023-02-14T04:48:04.555Z,85
2023-02-14T04:49:11.528Z,85
2023-02-14T04:50:20.724Z,85
2023-02-14T04:51:27.793Z,85
2023-02-14T04:52:36.843Z,85
2023-02-14T04:53:44.614Z,85
2023-02-14T04:54:52.936Z,85
2023-02-14T04:56:00.934Z,85
2023-02-14T04:57:07.930Z,85
2023-02-14T04:58:15.682Z,85
2023-02-14T04:59:24.920Z,85
2023-02-14T05:00:30.343Z,85
2023-02-14T05:01:40.135Z,85
2023-02-14T05:02:51.048Z,85
2023-02-14T05:03:58.103Z,85
2023-02-14T05:05:05.056Z,85
2023-02-14T05:06:13.769Z,85
2023-02-14T05:07:20.708Z,85
2023-02-14T05:08:27.629Z,85
2023-02-14T05:09:35.815Z,85
2023-02-14T05:10:43.557Z,85
2023-02-14T05:11:50.481Z,85
2023-02-14T05:12:58.737Z,85
2023-02-14T05:14:08.379Z,85
2023-02-14T05:15:15.272Z,85
2023-02-14T05:16:23.100Z,85
2023-02-14T05:17:30.728Z,85
2023-02-14T05:18:41.085Z,85
2023-02-14T05:19:48.858Z,85
2023-02-14T05:20:57.036Z,85
2023-02-14T05:22:06.611Z,85
2023-02-14T05:23:14.336Z,85
2023-02-14T05:24:22.070Z,85
2023-02-14T05:25:28.983Z,85
2023-02-14T05:26:35.985Z,85
2023-02-14T05:27:42.883Z,85
2023-02-14T05:28:50.695Z,85
2023-02-14T05:29:58.696Z,85
2023-02-14T05:31:05.560Z,85
2023-02-14T05:32:12.512Z,85
2023-02-14T05:33:21.925Z,85
2023-02-14T05:34:29.984Z,85
2023-02-14T05:35:36.836Z,85
2023-02-14T05:36:43.931Z,85
2023-02-14T05:37:51.008Z,85
2023-02-14T05:38:57.845Z,85
2023-02-14T05:40:06.111Z,85
2023-02-14T05:41:13.257Z,85
2023-02-14T05:42:22.252Z,85
2023-02-14T05:43:30.012Z,85
2023-02-14T05:44:36.908Z,85
2023-02-14T05:45:43.847Z,85
2023-02-14T05:46:52.206Z,85
2023-02-14T05:48:00.196Z,85
2023-02-14T05:49:07.080Z,85
2023-02-14T05:50:14.860Z,85
2023-02-14T05:51:21.754Z,85
2023-02-14T05:52:28.796Z,85
2023-02-14T05:53:36.824Z,85
2023-02-14T05:54:43.696Z,85
2023-02-14T05:55:50.469Z,85
2023-02-14T05:56:58.322Z,85
2023-02-14T05:58:05.974Z,85
2023-02-14T05:59:12.967Z,85
2023-02-14T06:00:19.732Z,85
2023-02-14T06:01:27.595Z,85
2023-02-14T06:02:35.265Z,85
2023-02-14T06:03:42.908Z,85
2023-02-14T06:04:49.746Z,85
2023-02-14T06:05:56.665Z,85
2023-02-14T06:07:07.704Z,85
2023-02-14T06:08:14.647Z,85
2023-02-14T06:09:21.385Z,85
2023-02-14T06:10:28.326Z,85
2023-02-14T06:11:35.251Z,85
2023-02-14T06:12:45.033Z,85
2023-02-14T06:13:51.974Z,85
2023-02-14T06:14:58.870Z,85
2023-02-14T06:16:07.085Z,85
2023-02-14T06:17:15.050Z,85
2023-02-14T06:18:21.971Z,85
2023-02-14T06:19:28.809Z,85
2023-02-14T06:20:36.519Z,85
2023-02-14T06:21:44.188Z,85
2023-02-14T06:22:51.910Z,85
2023-02-14T06:23:58.868Z,85
2023-02-14T06:25:06.475Z,85
2023-02-14T06:26:13.296Z,85
2023-02-14T06:27:20.171Z,85
2023-02-14T06:28:28.133Z,85
2023-02-14T06:29:35.976Z,85
2023-02-14T06:30:43.048Z,85
2023-02-14T06:31:49.809Z,85
2023-02-14T06:32:58.194Z,85
2023-02-14T06:34:05.837Z,85
2023-02-14T06:35:14.058Z,85
2023-02-14T06:36:20.968Z,85
2023-02-14T06:37:29.930Z,85
2023-02-14T06:38:36.838Z,85
2023-02-14T06:39:43.705Z,85
2023-02-14T06:40:50.701Z,85
2023-02-14T06:41:57.686Z,85
2023-02-14T06:43:04.465Z,85
2023-02-14T06:44:13.126Z,85
2023-02-14T06:45:20.153Z,85
2023-02-14T06:46:28.964Z,85
2023-02-14T06:47:38.622Z,85
2023-02-14T06:48:45.410Z,85
2023-02-14T06:49:52.434Z,85
2023-02-14T06:50:59.744Z,85
2023-02-14T06:52:06.232Z,85
2023-02-14T06:53:13.227Z,85
2023-02-14T06:54:20.938Z,85
2023-02-14T06:55:27.715Z,85
2023-02-14T06:56:34.789Z,85
2023-02-14T06:57:41.917Z,85
2023-02-14T06:58:48.800Z,85
2023-02-14T06:59:56.555Z,85
2023-02-14T07:01:04.543Z,85
2023-02-14T07:02:12.290Z,85
2023-02-14T07:03:19.101Z,85
2023-02-14T07:04:26.056Z,85
2023-02-14T07:05:34.628Z,85
2023-02-14T07:06:42.388Z,85
2023-02-14T07:07:50.032Z,85
2023-02-14T07:08:57.017Z,85
2023-02-14T07:10:06.366Z,85
2023-02-14T07:11:13.325Z,85
2023-02-14T07:12:20.094Z,85
2023-02-14T07:13:28.424Z,85
2023-02-14T07:14:35.183Z,85
2023-02-14T07:15:45.131Z,85
2023-02-14T07:16:53.792Z,85
2023-02-14T07:18:02.036Z,85
2023-02-14T07:19:09.005Z,85
2023-02-14T07:20:15.782Z,85
2023-02-14T07:21:22.628Z,85
2023-02-14T07:22:30.580Z,85
2023-02-14T07:23:37.341Z,84
2023-02-14T07:24:45.878Z,85
2023-02-14T07:25:52.760Z,85
2023-02-14T07:27:00.529Z,85
2023-02-14T07:28:11.508Z,85
2023-02-14T07:29:18.842Z,85
2023-02-14T07:30:25.691Z,85
2023-02-14T07:31:32.556Z,85
2023-02-14T07:32:39.421Z,85
2023-02-14T07:33:48.528Z,85
2023-02-14T07:34:55.412Z,85
2023-02-14T07:36:02.180Z,85
2023-02-14T07:37:09.192Z,85
2023-02-14T07:38:16.298Z,85
2023-02-14T07:39:23.132Z,84
2023-02-14T07:40:30.457Z,85
2023-02-14T07:41:37.264Z,85
2023-02-14T07:42:44.265Z,85
2023-02-14T07:43:56.355Z,85
2023-02-14T07:45:09.554Z,85
2023-02-14T07:46:10.228Z,85
2023-02-14T07:47:17.050Z,84
2023-02-14T07:48:24.007Z,85
2023-02-14T07:49:30.942Z,85
2023-02-14T07:50:37.891Z,85
2023-02-14T07:51:44.727Z,85
2023-02-14T07:52:51.589Z,85
2023-02-14T07:53:58.590Z,85
2023-02-14T07:55:05.390Z,85
2023-02-14T07:56:12.474Z,85
2023-02-14T07:57:20.319Z,85
2023-02-14T07:58:29.033Z,84
2023-02-14T07:59:35.935Z,84
2023-02-14T08:00:43.704Z,84
2023-02-14T08:01:50.741Z,85
2023-02-14T08:02:57.624Z,85
2023-02-14T08:04:04.503Z,85
2023-02-14T08:05:11.385Z,85
2023-02-14T08:06:18.131Z,85
2023-02-14T08:07:25.195Z,85
2023-02-14T08:08:32.091Z,85
2023-02-14T08:09:38.978Z,85
2023-02-14T08:10:45.799Z,85
2023-02-14T08:11:52.723Z,85
2023-02-14T08:13:05.018Z,85
2023-02-14T08:14:12.173Z,85
2023-02-14T08:15:19.098Z,85
2023-02-14T08:16:34.034Z,85
2023-02-14T08:17:41.003Z,85
2023-02-14T08:18:47.979Z,85
2023-02-14T08:19:54.836Z,85
2023-02-14T08:21:02.037Z,85
2023-02-14T08:22:08.653Z,85
2023-02-14T08:23:15.485Z,85
2023-02-14T08:24:22.402Z,85
2023-02-14T08:25:29.357Z,85
2023-02-14T08:26:36.199Z,85
2023-02-14T08:27:43.098Z,85
2023-02-14T08:28:50.008Z,85
2023-02-14T08:29:56.890Z,85
2023-02-14T08:31:04.238Z,85
2023-02-14T08:32:10.906Z,85
2023-02-14T08:33:17.541Z,85
2023-02-14T08:34:24.394Z,85
2023-02-14T08:35:31.295Z,85
2023-02-14T08:36:38.281Z,84
2023-02-14T08:37:45.171Z,85
2023-02-14T08:38:52.069Z,85
2023-02-14T08:39:59.008Z,85
2023-02-14T08:41:08.426Z,85
2023-02-14T08:42:13.699Z,85
2023-02-14T08:43:21.306Z,85
2023-02-14T08:44:28.148Z,85
2023-02-14T08:45:35.033Z,85
2023-02-14T08:46:41.973Z,85
2023-02-14T08:47:48.653Z,85
2023-02-14T08:48:55.637Z,85
2023-02-14T08:50:02.664Z,86
2023-02-14T08:51:12.900Z,85
2023-02-14T08:52:22.278Z,85
2023-02-14T08:53:29.990Z,85
2023-02-14T08:54:36.803Z,84
2023-02-14T08:55:43.592Z,84
2023-02-14T08:56:50.604Z,84
2023-02-14T08:57:58.470Z,84
2023-02-14T08:59:05.301Z,84
2023-02-14T09:00:12.208Z,84
2023-02-14T09:01:19.219Z,84
2023-02-14T09:02:25.865Z,84
2023-02-14T09:03:32.895Z,85
2023-02-14T09:04:39.730Z,84
2023-02-14T09:05:46.369Z,84
2023-02-14T09:06:53.307Z,84
2023-02-14T09:08:00.210Z,84
2023-02-14T09:09:07.185Z,84
2023-02-14T09:10:14.905Z,84
2023-02-14T09:11:24.831Z,83
2023-02-14T09:12:31.921Z,83
2023-02-14T09:13:38.691Z,83
2023-02-14T09:14:45.588Z,83
2023-02-14T09:15:52.524Z,84
2023-02-14T09:16:59.427Z,83
2023-02-14T09:18:06.233Z,83
2023-02-14T09:19:15.426Z,83
2023-02-14T09:20:22.304Z,84
2023-02-14T09:21:29.159Z,83
2023-02-14T09:22:36.005Z,84
2023-02-14T09:23:43.317Z,83
2023-02-14T09:24:50.648Z,83
2023-02-14T09:25:57.599Z,83
2023-02-14T09:27:07.642Z,83
2023-02-14T09:28:15.621Z,83
2023-02-14T09:29:22.446Z,83
2023-02-14T09:30:29.405Z,82
2023-02-14T09:31:36.261Z,83
2023-02-14T09:32:43.170Z,83
2023-02-14T09:33:51.077Z,83
2023-02-14T09:35:03.174Z,82
2023-02-14T09:36:10.302Z,83
2023-02-14T09:37:17.254Z,82
2023-02-14T09:38:24.190Z,82
2023-02-14T09:39:31.077Z,83
2023-02-14T09:40:37.985Z,82
2023-02-14T09:41:45.339Z,83
2023-02-14T09:42:52.299Z,83
2023-02-14T09:44:09.494Z,82
2023-02-14T09:45:24.749Z,81
2023-02-14T09:46:31.610Z,82
2023-02-14T09:47:38.593Z,82
2023-02-14T09:48:48.246Z,81
2023-02-14T09:49:55.147Z,81
2023-02-14T09:51:02.521Z,82
2023-02-14T09:52:09.231Z,81
2023-02-14T09:53:16.201Z,81
2023-02-14T09:54:28.622Z,81
2023-02-14T09:55:35.433Z,81
2023-02-14T09:56:51.191Z,81
2023-02-14T09:57:52.514Z,81
2023-02-14T09:59:02.169Z,81
2023-02-14T10:00:19.358Z,81
2023-02-14T10:01:26.413Z,81
2023-02-14T10:02:33.268Z,81
2023-02-14T10:03:48.106Z,80
2023-02-14T10:04:55.185Z,80
2023-02-14T10:06:12.404Z,80
2023-02-14T10:07:24.434Z,80
2023-02-14T10:08:36.546Z,80
2023-02-14T10:09:49.675Z,80
2023-02-14T10:11:01.902Z,81
2023-02-14T10:12:13.670Z,80
2023-02-14T10:13:28.381Z,81
2023-02-14T10:14:43.823Z,80
2023-02-14T10:15:50.863Z,80
2023-02-14T10:17:00.703Z,81
2023-02-14T10:18:12.758Z,80
2023-02-14T10:19:24.865Z,80
2023-02-14T10:20:31.706Z,80
2023-02-14T10:21:43.664Z,80
2023-02-14T10:22:55.666Z,80
2023-02-14T10:24:06.373Z,81
2023-02-14T10:25:20.931Z,81
2023-02-14T10:26:32.918Z,80
2023-02-14T10:27:39.951Z,80
2023-02-14T10:28:46.793Z,80
2023-02-14T10:29:53.751Z,79
2023-02-14T10:31:01.651Z,79
2023-02-14T10:32:09.199Z,79
2023-02-14T10:33:16.343Z,80
2023-02-14T10:34:23.282Z,80
2023-02-14T10:35:39.562Z,79
2023-02-14T10:36:51.601Z,79
2023-02-14T10:38:08.890Z,79
2023-02-14T10:39:23.663Z,79
2023-02-14T10:40:35.669Z,79
2023-02-14T10:41:51.522Z,79
2023-02-14T10:42:59.299Z,79
2023-02-14T10:44:14.123Z,79
2023-02-14T10:45:31.395Z,79
2023-02-14T10:46:38.268Z,79
2023-02-14T10:47:56.328Z,79
2023-02-14T10:49:13.507Z,79
2023-02-14T10:50:25.566Z,79
2023-02-14T10:51:35.515Z,79
2023-02-14T10:52:42.426Z,79
2023-02-14T10:53:54.397Z,79
2023-02-14T10:55:06.414Z,79
2023-02-14T10:56:22.723Z,79
2023-02-14T10:57:31.821Z,78
2023-02-14T10:58:41.744Z,78
2023-02-14T10:59:48.576Z,79
2023-02-14T11:01:05.800Z,78
2023-02-14T11:02:15.531Z,79
2023-02-14T11:03:22.622Z,79
2023-02-14T11:04:30.576Z,79
2023-02-14T11:05:37.429Z,78
2023-02-14T11:06:47.073Z,78
2023-02-14T11:07:53.951Z,78
2023-02-14T11:09:01.796Z,78
2023-02-14T11:10:08.546Z,78
2023-02-14T11:11:15.782Z,78
2023-02-14T11:12:27.824Z,78
2023-02-14T11:13:37.498Z,78
2023-02-14T11:14:44.522Z,78
2023-02-14T11:15:51.397Z,78
2023-02-14T11:16:58.321Z,77
2023-02-14T11:18:15.533Z,77
2023-02-14T11:19:27.636Z,77
2023-02-14T11:20:34.412Z,77
2023-02-14T11:21:42.331Z,77
2023-02-14T11:22:49.292Z,77
2023-02-14T11:23:56.890Z,76
2023-02-14T11:25:04.716Z,77
2023-02-14T11:26:11.008Z,77
2023-02-14T11:27:23.026Z,77
2023-02-14T11:28:29.935Z,77
2023-02-14T11:29:36.795Z,76
2023-02-14T11:30:46.595Z,76
2023-02-14T11:31:53.512Z,76
2023-02-14T11:33:00.412Z,76
2023-02-14T11:34:07.335Z,76
2023-02-14T11:35:22.535Z,76
2023-02-14T11:36:30.611Z,76
2023-02-14T11:37:38.587Z,76
2023-02-14T11:38:53.411Z,76
2023-02-14T11:40:05.504Z,76
2023-02-14T11:41:24.465Z,75
2023-02-14T11:42:29.677Z,75
2023-02-14T11:43:41.908Z,75
2023-02-14T11:44:48.849Z,75
2023-02-14T11:45:59.305Z,75
2023-02-14T11:47:14.568Z,75
2023-02-14T11:48:39.699Z,75
2023-02-14T11:49:33.516Z,75
2023-02-14T11:50:40.540Z,75
2023-02-14T11:51:47.393Z,75
2023-02-14T11:52:55.209Z,76
2023-02-14T11:54:02.104Z,75
2023-02-14T11:55:09.008Z,76
2023-02-14T11:56:15.912Z,76
2023-02-14T11:57:22.894Z,76
2023-02-14T11:58:32.731Z,76
2023-02-14T11:59:42.492Z,76
2023-02-14T12:00:54.585Z,75
2023-02-14T12:02:01.601Z,75
2023-02-14T12:03:18.819Z,74
2023-02-14T12:04:25.728Z,75
2023-02-14T12:05:35.800Z,75
2023-02-14T12:06:47.825Z,74
2023-02-14T12:07:54.750Z,74
2023-02-14T12:09:04.644Z,75
2023-02-14T12:10:22.141Z,74
2023-02-14T12:11:32.252Z,74
2023-02-14T12:12:39.222Z,73
2023-02-14T12:13:54.292Z,73
2023-02-14T12:15:02.052Z,73
2023-02-14T12:16:19.187Z,74
2023-02-14T12:17:32.199Z,73
2023-02-14T12:18:39.123Z,74
2023-02-14T12:19:54.067Z,74
2023-02-14T12:21:11.300Z,73
2023-02-14T12:22:28.124Z,73
2023-02-14T12:23:32.732Z,73
2023-02-14T12:24:43.727Z,73
2023-02-14T12:25:55.716Z,72
2023-02-14T12:27:07.694Z,72
2023-02-14T12:28:19.690Z,72
2023-02-14T12:29:26.600Z,72
2023-02-14T12:30:36.263Z,72
2023-02-14T12:31:43.403Z,72
2023-02-14T12:32:50.915Z,72
2023-02-14T12:33:59.283Z,73
2023-02-14T12:35:06.387Z,73
2023-02-14T12:36:18.462Z,73
2023-02-14T12:37:35.653Z,73
2023-02-14T12:38:53.022Z,72
2023-02-14T12:40:05.022Z,72
2023-02-14T12:41:14.764Z,72
2023-02-14T12:42:26.756Z,72
2023-02-14T12:43:38.625Z,72
2023-02-14T12:44:52.312Z,73
2023-02-14T12:46:07.538Z,73
2023-02-14T12:47:19.366Z,73
2023-02-14T12:48:31.426Z,73
2023-02-14T12:49:44.388Z,73
2023-02-14T12:51:01.962Z,73
2023-02-14T12:52:14.274Z,72
2023-02-14T12:53:31.435Z,73
2023-02-14T12:54:43.508Z,72
2023-02-14T12:56:00.808Z,72
2023-02-14T12:57:13.753Z,72
2023-02-14T12:58:28.626Z,72
2023-02-14T12:59:40.680Z,71
2023-02-14T13:00:58.187Z,71
2023-02-14T13:02:15.204Z,71
2023-02-14T13:03:27.253Z,71
2023-02-14T13:04:44.474Z,71
2023-02-14T13:05:56.526Z,71
2023-02-14T13:07:11.651Z,72
2023-02-14T13:08:19.222Z,71
2023-02-14T13:09:34.191Z,71
2023-02-14T13:10:43.766Z,71
2023-02-14T13:12:01.082Z,71
2023-02-14T13:13:14.092Z,71
2023-02-14T13:14:26.176Z,71
2023-02-14T13:15:43.582Z,71
2023-02-14T13:16:53.271Z,72
2023-02-14T13:18:00.399Z,72
2023-02-14T13:19:17.570Z,72
2023-02-14T13:20:29.730Z,71
2023-02-14T13:21:46.811Z,72
2023-02-14T13:22:53.734Z,71
2023-02-14T13:24:00.645Z,71
2023-02-14T13:25:12.696Z,71
2023-02-14T13:26:19.682Z,72
2023-02-14T13:27:29.239Z,72
2023-02-14T13:28:36.459Z,72
2023-02-14T13:29:43.336Z,72
2023-02-14T13:30:51.115Z,72
2023-02-14T13:31:58.199Z,72
2023-02-14T13:33:06.170Z,72
2023-02-14T13:34:13.114Z,72
2023-02-14T13:35:25.245Z,72
2023-02-14T13:36:32.303Z,73
2023-02-14T13:37:39.241Z,73
2023-02-14T13:38:46.251Z,73
2023-02-14T13:39:53.207Z,73
2023-02-14T13:41:05.500Z,73
2023-02-14T13:42:12.296Z,73
2023-02-14T13:43:24.206Z,73
2023-02-14T13:44:41.678Z,73
2023-02-14T13:45:51.555Z,73
2023-02-14T13:46:58.641Z,73
2023-02-14T13:48:05.469Z,73
2023-02-14T13:49:20.437Z,73
2023-02-14T13:50:27.387Z,73
2023-02-14T13:51:34.291Z,73
2023-02-14T13:52:46.250Z,73
2023-02-14T13:53:53.122Z,74
2023-02-14T13:55:01.585Z,73
2023-02-14T13:56:11.261Z,73
2023-02-14T13:57:21.973Z,73
2023-02-14T13:58:36.928Z,73
2023-02-14T13:59:54.226Z,73
2023-02-14T14:01:11.566Z,73
2023-02-14T14:02:30.140Z,73
2023-02-14T14:03:36.265Z,73
2023-02-14T14:04:46.569Z,73
2023-02-14T14:05:53.452Z,73
2023-02-14T14:07:00.356Z,73
2023-02-14T14:08:07.265Z,73
2023-02-14T14:09:24.608Z,73
2023-02-14T14:10:42.803Z,73
2023-02-14T14:11:54.840Z,73
2023-02-14T14:13:01.739Z,73
2023-02-14T14:14:08.696Z,74
2023-02-14T14:15:23.661Z,73
2023-02-14T14:16:30.634Z,73
2023-02-14T14:17:37.557Z,74
2023-02-14T14:18:47.276Z,73
2023-02-14T14:19:58.169Z,73
2023-02-14T14:21:05.401Z,73
2023-02-14T14:22:17.806Z,73
2023-02-14T14:23:25.081Z,73
2023-02-14T14:24:35.681Z,73
2023-02-14T14:25:42.785Z,73
2023-02-14T14:26:49.761Z,73
2023-02-14T14:28:04.732Z,73
2023-02-14T14:29:20.437Z,74
2023-02-14T14:30:27.307Z,74
2023-02-14T14:31:34.212Z,74
2023-02-14T14:32:41.129Z,74
2023-02-14T14:33:48.110Z,74
2023-02-14T14:35:01.225Z,74
2023-02-14T14:36:16.066Z,75
2023-02-14T14:37:25.735Z,74
2023-02-14T14:38:36.090Z,74
2023-02-14T14:39:51.911Z,74
2023-02-14T14:41:01.836Z,74
2023-02-14T14:42:08.829Z,74
2023-02-14T14:43:18.829Z,73
2023-02-14T14:44:31.044Z,73
2023-02-14T14:45:38.050Z,74
2023-02-14T14:46:45.773Z,74
2023-02-14T14:47:54.161Z,73
2023-02-14T14:48:59.801Z,73
2023-02-14T14:50:06.763Z,73
2023-02-14T14:51:16.671Z,73
2023-02-14T14:52:31.776Z,73
2023-02-14T14:53:42.102Z,73
2023-02-14T14:54:48.948Z,73
2023-02-14T14:55:55.886Z,73
2023-02-14T14:57:02.881Z,74
2023-02-14T14:58:09.850Z,74
2023-02-14T14:59:27.020Z,74
2023-02-14T15:00:39.098Z,74
2023-02-14T15:01:46.004Z,75
2023-02-14T15:02:52.910Z,75
2023-02-14T15:04:08.699Z,75
2023-02-14T15:05:17.520Z,75
2023-02-14T15:06:30.557Z,75
2023-02-14T15:07:37.835Z,75
2023-02-14T15:08:44.524Z,75
2023-02-14T15:09:51.437Z,75
2023-02-14T15:10:59.746Z,75
2023-02-14T15:12:11.388Z,75
2023-02-14T15:13:23.359Z,75
2023-02-14T15:14:40.615Z,75
2023-02-14T15:15:47.519Z,75
2023-02-14T15:16:54.435Z,75
2023-02-14T15:18:04.251Z,75
2023-02-14T15:19:11.253Z,75
2023-02-14T15:20:23.338Z,75
2023-02-14T15:21:30.191Z,75
2023-02-14T15:22:37.503Z,75
2023-02-14T15:23:47.576Z,75
2023-02-14T15:24:54.435Z,75
2023-02-14T15:26:01.494Z,76
2023-02-14T15:27:08.525Z,76
2023-02-14T15:28:15.400Z,76
2023-02-14T15:29:30.247Z,76
2023-02-14T15:30:37.430Z,76
2023-02-14T15:31:44.977Z,76
2023-02-14T15:32:51.892Z,76
2023-02-14T15:33:58.913Z,77
2023-02-14T15:35:06.772Z,77
2023-02-14T15:36:13.647Z,77
2023-02-14T15:37:23.316Z,77
2023-02-14T15:38:30.269Z,77
2023-02-14T15:39:38.285Z,77
2023-02-14T15:40:45.169Z,77
2023-02-14T15:41:52.053Z,77
2023-02-14T15:43:01.880Z,77
2023-02-14T15:44:16.938Z,78
2023-02-14T15:45:23.853Z,77
2023-02-14T15:46:30.886Z,78
2023-02-14T15:47:37.690Z,77
2023-02-14T15:48:45.010Z,78
2023-02-14T15:49:52.049Z,77
2023-02-14T15:50:59.232Z,77
2023-02-14T15:52:05.765Z,77
2023-02-14T15:53:15.525Z,77
2023-02-14T15:54:22.334Z,77
2023-02-14T15:55:29.274Z,78
2023-02-14T15:56:36.227Z,77
2023-02-14T15:57:51.109Z,78
2023-02-14T15:59:04.043Z,78
2023-02-14T16:00:10.961Z,78
2023-02-14T16:01:23.078Z,77
2023-02-14T16:02:30.035Z,77
2023-02-14T16:03:36.962Z,77
2023-02-14T16:04:43.941Z,77
2023-02-14T16:05:50.952Z,78
2023-02-14T16:06:58.009Z,78
2023-02-14T16:08:07.619Z,78
2023-02-14T16:09:24.770Z,78
2023-02-14T16:10:31.827Z,78
2023-02-14T16:11:38.770Z,78
2023-02-14T16:12:45.744Z,78
2023-02-14T16:13:57.839Z,78
2023-02-14T16:15:15.009Z,78
2023-02-14T16:16:21.908Z,78
2023-02-14T16:17:28.760Z,78
2023-02-14T16:18:35.768Z,78
2023-02-14T16:19:42.716Z,78
2023-02-14T16:20:49.571Z,78
2023-02-14T16:21:56.745Z,78
2023-02-14T16:23:03.775Z,78
2023-02-14T16:24:20.955Z,78
2023-02-14T16:25:27.859Z,79
2023-02-14T16:26:34.766Z,79
2023-02-14T16:27:42.234Z,79